PWSweather.com
Personal Weather Stations
Station Observations
DW1039
Liberty & Fairfield Townships, Hamilton, OH 45011

Liberty & Fairfield TownshipsHamilton, OH 45011

Lat: 39.3933, Lon: -84.477

Elevation: 780

Station Type: Davis Vantage Pro2 (Daytime Fan Aspirated)

http://www.lfweathercenter.com/

High Low Average
Temperature 61.1°F16.2°C 54.1°F12.3°C 57.8°F14.3°C
Dew Point 53.8°F12.1°C 49.9°F9.9°C 52.5°F11.4°C
Winds 7.0 mph 11.3 kmh Calm Calm 1.0 mph SSE1.6 kmh SSE
Wind Gusts 13.0 mph20.9 kmh -- 4.0 mph6.4 kmh
Humidity 88% 75% 82%
Pressure 30.19 in1022.4 mb 30.10 in1019.3 mb -
Precipitation 0.02 in0.5 mm - -
Hour Temp Dew Point Humidity Winds Wind Gusts Pressure Precip Precip Rate Daily Precip Total
12:00 AM 57.8°F14.3°C 53.7°F12.1°C 86% Calm Calm 1.0 mph1.6 kmh 30.13 in1020.3 mb 0.03 in0.8 mm 0.00 in/hr0.0 mm/hr 0.03 in0.8 mm
12:10 AM 57.7°F14.3°C 53.9°F12.2°C 87% 3.0 mph N4.8 kmh N 4.0 mph6.4 kmh 30.12 in1020.0 mb 0.03 in0.8 mm 0.00 in/hr0.0 mm/hr 0.03 in0.8 mm
12:20 AM 57.7°F14.3°C 53.9°F12.2°C 87% Calm Calm 5.0 mph8.0 kmh 30.12 in1020.0 mb 0.03 in0.8 mm 0.00 in/hr0.0 mm/hr 0.03 in0.8 mm
12:30 AM 57.6°F14.2°C 53.8°F12.1°C 87% Calm Calm 3.0 mph4.8 kmh 30.12 in1020.0 mb 0.03 in0.8 mm 0.00 in/hr0.0 mm/hr 0.03 in0.8 mm
12:40 AM 57.5°F14.2°C 53.7°F12.1°C 87% Calm Calm 3.0 mph4.8 kmh 30.12 in1020.0 mb 0.02 in0.5 mm 0.00 in/hr0.0 mm/hr 0.03 in0.8 mm
12:50 AM 57.5°F14.2°C 53.7°F12.1°C 87% Calm Calm 3.0 mph4.8 kmh 30.12 in1020.0 mb 0.01 in0.3 mm 0.00 in/hr0.0 mm/hr 0.03 in0.8 mm
01:00 AM 57.6°F14.2°C 53.8°F12.1°C 87% 1.0 mph N1.6 kmh N 4.0 mph6.4 kmh 30.12 in1020.0 mb 0.02 in0.5 mm 0.01 in/hr0.3 mm/hr 0.04 in1.0 mm
01:10 AM 57.5°F14.2°C 53.7°F12.1°C 87% Calm Calm 3.0 mph4.8 kmh 30.12 in1020.0 mb 0.01 in0.3 mm 0.00 in/hr0.0 mm/hr 0.04 in1.0 mm
01:20 AM 57.5°F14.2°C 53.7°F12.1°C 87% Calm Calm 5.0 mph8.0 kmh 30.12 in1020.0 mb 0.02 in0.5 mm 0.06 in/hr1.5 mm/hr 0.05 in1.3 mm
01:30 AM 57.5°F14.2°C 53.7°F12.1°C 87% Calm Calm 3.0 mph4.8 kmh 30.12 in1020.0 mb 0.03 in0.8 mm 0.06 in/hr1.5 mm/hr 0.06 in1.5 mm
01:40 AM 57.5°F14.2°C 53.7°F12.1°C 87% Calm Calm 1.0 mph1.6 kmh 30.12 in1020.0 mb 0.03 in0.8 mm 0.00 in/hr0.0 mm/hr 0.06 in1.5 mm
01:50 AM 57.4°F14.1°C 53.6°F12.0°C 87% Calm Calm 1.0 mph1.6 kmh 30.12 in1020.0 mb 0.04 in1.0 mm 0.06 in/hr1.5 mm/hr 0.07 in1.8 mm
02:00 AM 57.4°F14.1°C 53.6°F12.0°C 87% Calm Calm 4.0 mph6.4 kmh 30.12 in1020.0 mb 0.04 in1.0 mm 0.00 in/hr0.0 mm/hr 0.07 in1.8 mm
02:10 AM 57.3°F14.1°C 53.5°F11.9°C 87% 1.0 mph N1.6 kmh N 3.0 mph4.8 kmh 30.11 in1019.6 mb 0.04 in1.0 mm 0.00 in/hr0.0 mm/hr 0.07 in1.8 mm
02:20 AM 57.3°F14.1°C 53.5°F11.9°C 87% 1.0 mph NNE1.6 kmh NNE 4.0 mph6.4 kmh 30.11 in1019.6 mb 0.03 in0.8 mm 0.00 in/hr0.0 mm/hr 0.07 in1.8 mm
02:30 AM 57.4°F14.1°C 53.6°F12.0°C 87% Calm Calm 6.0 mph9.7 kmh 30.11 in1019.6 mb 0.03 in0.8 mm 0.00 in/hr0.0 mm/hr 0.07 in1.8 mm
02:40 AM 57.3°F14.1°C 53.5°F11.9°C 87% Calm Calm 4.0 mph6.4 kmh 30.11 in1019.6 mb 0.03 in0.8 mm 0.00 in/hr0.0 mm/hr 0.07 in1.8 mm
02:50 AM 57.3°F14.1°C 53.5°F11.9°C 87% Calm Calm 2.0 mph3.2 kmh 30.11 in1019.6 mb 0.02 in0.5 mm 0.00 in/hr0.0 mm/hr 0.07 in1.8 mm
03:00 AM 57.4°F14.1°C 53.6°F12.0°C 87% 1.0 mph N1.6 kmh N 3.0 mph4.8 kmh 30.11 in1019.6 mb 0.01 in0.3 mm 0.00 in/hr0.0 mm/hr 0.07 in1.8 mm
03:10 AM 57.4°F14.1°C 53.6°F12.0°C 87% Calm Calm 1.0 mph1.6 kmh 30.11 in1019.6 mb 0.01 in0.3 mm 0.00 in/hr0.0 mm/hr 0.07 in1.8 mm
03:20 AM 57.5°F14.2°C 53.7°F12.1°C 87% 4.0 mph N6.4 kmh N 4.0 mph6.4 kmh 30.11 in1019.6 mb 0.01 in0.3 mm 0.00 in/hr0.0 mm/hr 0.07 in1.8 mm
03:30 AM 57.4°F14.1°C 53.6°F12.0°C 87% Calm Calm 4.0 mph6.4 kmh 30.11 in1019.6 mb 0.00 in0.0 mm 0.00 in/hr0.0 mm/hr 0.07 in1.8 mm
03:40 AM 57.5°F14.2°C 53.7°F12.1°C 87% 4.0 mph N6.4 kmh N 5.0 mph8.0 kmh 30.10 in1019.3 mb 0.01 in0.3 mm 0.06 in/hr1.5 mm/hr 0.08 in2.0 mm
03:50 AM 57.4°F14.1°C 53.6°F12.0°C 87% Calm Calm -- 30.10 in1019.3 mb 0.01 in0.3 mm 0.00 in/hr0.0 mm/hr 0.08 in2.0 mm
04:00 AM 57.3°F14.1°C 53.5°F11.9°C 87% Calm Calm 7.0 mph11.3 kmh 30.10 in1019.3 mb 0.01 in0.3 mm 0.00 in/hr0.0 mm/hr 0.08 in2.0 mm
04:10 AM 57.2°F14.0°C 53.7°F12.1°C 88% Calm Calm 1.0 mph1.6 kmh 30.10 in1019.3 mb 0.01 in0.3 mm 0.00 in/hr0.0 mm/hr 0.08 in2.0 mm
04:20 AM 57.2°F14.0°C 53.7°F12.1°C 88% Calm Calm 2.0 mph3.2 kmh 30.10 in1019.3 mb 0.01 in0.3 mm 0.00 in/hr0.0 mm/hr 0.08 in2.0 mm
04:30 AM 57.2°F14.0°C 53.7°F12.1°C 88% 1.0 mph NE1.6 kmh NE 1.0 mph1.6 kmh 30.11 in1019.6 mb 0.01 in0.3 mm 0.00 in/hr0.0 mm/hr 0.08 in2.0 mm
04:40 AM 57.2°F14.0°C 53.7°F12.1°C 88% 4.0 mph NE6.4 kmh NE 4.0 mph6.4 kmh 30.10 in1019.3 mb 0.00 in0.0 mm 0.00 in/hr0.0 mm/hr 0.08 in2.0 mm
04:50 AM 57.2°F14.0°C 53.7°F12.1°C 88% Calm Calm 5.0 mph8.0 kmh 30.10 in1019.3 mb 0.00 in0.0 mm 0.00 in/hr0.0 mm/hr 0.08 in2.0 mm
05:00 AM 57.1°F13.9°C 53.6°F12.0°C 88% Calm Calm 5.0 mph8.0 kmh 30.10 in1019.3 mb 0.00 in0.0 mm 0.00 in/hr0.0 mm/hr 0.08 in2.0 mm
05:10 AM 57.0°F13.9°C 53.5°F11.9°C 88% Calm Calm 1.0 mph1.6 kmh 30.11 in1019.6 mb 0.00 in0.0 mm 0.00 in/hr0.0 mm/hr 0.08 in2.0 mm
05:20 AM 56.9°F13.8°C 53.4°F11.9°C 88% Calm Calm 6.0 mph9.7 kmh 30.11 in1019.6 mb 0.00 in0.0 mm 0.00 in/hr0.0 mm/hr 0.08 in2.0 mm
05:30 AM 56.8°F13.8°C 53.3°F11.8°C 88% Calm Calm 2.0 mph3.2 kmh 30.11 in1019.6 mb 0.00 in0.0 mm 0.00 in/hr0.0 mm/hr 0.08 in2.0 mm
05:40 AM 56.9°F13.8°C 53.4°F11.9°C 88% Calm Calm 4.0 mph6.4 kmh 30.11 in1019.6 mb 0.00 in0.0 mm 0.00 in/hr0.0 mm/hr 0.08 in2.0 mm
05:50 AM 56.9°F13.8°C 53.4°F11.9°C 88% Calm Calm 1.0 mph1.6 kmh 30.12 in1020.0 mb 0.00 in0.0 mm 0.00 in/hr0.0 mm/hr 0.08 in2.0 mm
06:00 AM 56.9°F13.8°C 53.4°F11.9°C 88% Calm Calm 3.0 mph4.8 kmh 30.12 in1020.0 mb 0.00 in0.0 mm 0.00 in/hr0.0 mm/hr 0.08 in2.0 mm
06:10 AM 56.9°F13.8°C 53.4°F11.9°C 88% Calm Calm 5.0 mph8.0 kmh 30.12 in1020.0 mb 0.00 in0.0 mm 0.00 in/hr0.0 mm/hr 0.08 in2.0 mm
06:20 AM 56.8°F13.8°C 53.3°F11.8°C 88% 1.0 mph N1.6 kmh N 5.0 mph8.0 kmh 30.13 in1020.3 mb 0.00 in0.0 mm 0.00 in/hr0.0 mm/hr 0.08 in2.0 mm
06:30 AM 56.8°F13.8°C 53.3°F11.8°C 88% 3.0 mph NNE4.8 kmh NNE 5.0 mph8.0 kmh 30.13 in1020.3 mb 0.00 in0.0 mm 0.00 in/hr0.0 mm/hr 0.08 in2.0 mm
06:40 AM 56.7°F13.7°C 53.2°F11.8°C 88% 1.0 mph N1.6 kmh N 5.0 mph8.0 kmh 30.13 in1020.3 mb 0.00 in0.0 mm 0.00 in/hr0.0 mm/hr 0.08 in2.0 mm
06:50 AM 56.6°F13.7°C 53.1°F11.7°C 88% 4.0 mph N6.4 kmh N 7.0 mph11.3 kmh 30.14 in1020.7 mb 0.00 in0.0 mm 0.00 in/hr0.0 mm/hr 0.08 in2.0 mm
07:00 AM 56.2°F13.4°C 52.7°F11.5°C 88% 6.0 mph N9.7 kmh N 7.0 mph11.3 kmh 30.14 in1020.7 mb 0.00 in0.0 mm 0.00 in/hr0.0 mm/hr 0.08 in2.0 mm
07:10 AM 55.7°F13.2°C 52.2°F11.2°C 88% 1.0 mph N1.6 kmh N 7.0 mph11.3 kmh 30.14 in1020.7 mb 0.00 in0.0 mm 0.00 in/hr0.0 mm/hr 0.08 in2.0 mm
07:20 AM 55.3°F12.9°C 51.5°F10.8°C 87% 3.0 mph NNE4.8 kmh NNE 9.0 mph14.5 kmh 30.15 in1021.0 mb 0.00 in0.0 mm 0.00 in/hr0.0 mm/hr 0.08 in2.0 mm
07:30 AM 55.3°F12.9°C 51.5°F10.8°C 87% 5.0 mph N8.0 kmh N 7.0 mph11.3 kmh 30.16 in1021.3 mb 0.00 in0.0 mm 0.00 in/hr0.0 mm/hr 0.08 in2.0 mm
07:40 AM 55.3°F12.9°C 51.5°F10.8°C 87% 2.0 mph NNE3.2 kmh NNE 11.0 mph17.7 kmh 30.16 in1021.3 mb 0.00 in0.0 mm 0.00 in/hr0.0 mm/hr 0.08 in2.0 mm
07:50 AM 55.0°F12.8°C 51.2°F10.7°C 87% 3.0 mph NNE4.8 kmh NNE 8.0 mph12.9 kmh 30.16 in1021.3 mb 0.00 in0.0 mm 0.00 in/hr0.0 mm/hr 0.08 in2.0 mm
08:00 AM 54.7°F12.6°C 50.9°F10.5°C 87% 4.0 mph NNE6.4 kmh NNE 13.0 mph20.9 kmh 30.17 in1021.7 mb 0.00 in0.0 mm 0.00 in/hr0.0 mm/hr 0.08 in2.0 mm
08:10 AM 54.4°F12.4°C 50.6°F10.3°C 87% 6.0 mph N9.7 kmh N 13.0 mph20.9 kmh 30.17 in1021.7 mb 0.00 in0.0 mm 0.00 in/hr0.0 mm/hr 0.08 in2.0 mm
08:20 AM 54.4°F12.4°C 50.6°F10.3°C 87% 4.0 mph NE6.4 kmh NE 11.0 mph17.7 kmh 30.17 in1021.7 mb 0.00 in0.0 mm 0.00 in/hr0.0 mm/hr 0.08 in2.0 mm
08:30 AM 54.3°F12.4°C 50.5°F10.3°C 87% 6.0 mph NNE9.7 kmh NNE 10.0 mph16.1 kmh 30.17 in1021.7 mb 0.00 in0.0 mm 0.00 in/hr0.0 mm/hr 0.08 in2.0 mm
08:40 AM 54.1°F12.3°C 50.3°F10.2°C 87% 4.0 mph NNE6.4 kmh NNE 11.0 mph17.7 kmh 30.17 in1021.7 mb 0.00 in0.0 mm 0.00 in/hr0.0 mm/hr 0.08 in2.0 mm
08:50 AM 54.1°F12.3°C 50.3°F10.2°C 87% Calm Calm 9.0 mph14.5 kmh 30.17 in1021.7 mb 0.00 in0.0 mm 0.00 in/hr0.0 mm/hr 0.08 in2.0 mm
09:00 AM 54.3°F12.4°C 50.5°F10.3°C 87% 2.0 mph N3.2 kmh N 6.0 mph9.7 kmh 30.18 in1022.0 mb 0.00 in0.0 mm 0.00 in/hr0.0 mm/hr 0.08 in2.0 mm
09:10 AM 54.2°F12.3°C 50.4°F10.2°C 87% 5.0 mph N8.0 kmh N 10.0 mph16.1 kmh 30.18 in1022.0 mb 0.00 in0.0 mm 0.00 in/hr0.0 mm/hr 0.08 in2.0 mm
09:20 AM 54.2°F12.3°C 50.4°F10.2°C 87% 1.0 mph NNW1.6 kmh NNW 11.0 mph17.7 kmh 30.18 in1022.0 mb 0.00 in0.0 mm 0.00 in/hr0.0 mm/hr 0.08 in2.0 mm
09:30 AM 54.3°F12.4°C 50.5°F10.3°C 87% 5.0 mph N8.0 kmh N 10.0 mph16.1 kmh 30.18 in1022.0 mb 0.00 in0.0 mm 0.00 in/hr0.0 mm/hr 0.08 in2.0 mm
09:40 AM 54.5°F12.5°C 50.4°F10.2°C 86% 1.0 mph NNE1.6 kmh NNE 10.0 mph16.1 kmh 30.18 in1022.0 mb 0.00 in0.0 mm 0.00 in/hr0.0 mm/hr 0.08 in2.0 mm
09:50 AM 54.5°F12.5°C 50.4°F10.2°C 86% 3.0 mph NE4.8 kmh NE 11.0 mph17.7 kmh 30.19 in1022.4 mb 0.00 in0.0 mm 0.00 in/hr0.0 mm/hr 0.08 in2.0 mm
10:00 AM 54.6°F12.6°C 50.5°F10.3°C 86% Calm Calm 10.0 mph16.1 kmh 30.18 in1022.0 mb 0.00 in0.0 mm 0.00 in/hr0.0 mm/hr 0.08 in2.0 mm
10:10 AM 55.1°F12.8°C 51.0°F10.6°C 86% 2.0 mph NE3.2 kmh NE 7.0 mph11.3 kmh 30.19 in1022.4 mb 0.00 in0.0 mm 0.00 in/hr0.0 mm/hr 0.08 in2.0 mm
10:20 AM 55.5°F13.1°C 51.1°F10.6°C 85% 2.0 mph NE3.2 kmh NE 5.0 mph8.0 kmh 30.19 in1022.4 mb 0.00 in0.0 mm 0.00 in/hr0.0 mm/hr 0.08 in2.0 mm
10:30 AM 55.7°F13.2°C 51.3°F10.7°C 85% 5.0 mph N8.0 kmh N 7.0 mph11.3 kmh 30.19 in1022.4 mb 0.00 in0.0 mm 0.00 in/hr0.0 mm/hr 0.08 in2.0 mm
10:40 AM 55.9°F13.3°C 51.1°F10.6°C 84% 4.0 mph NE6.4 kmh NE 10.0 mph16.1 kmh 30.19 in1022.4 mb 0.00 in0.0 mm 0.00 in/hr0.0 mm/hr 0.08 in2.0 mm
10:50 AM 56.2°F13.4°C 51.1°F10.6°C 83% 3.0 mph NE4.8 kmh NE 10.0 mph16.1 kmh 30.18 in1022.0 mb 0.00 in0.0 mm 0.00 in/hr0.0 mm/hr 0.08 in2.0 mm
11:00 AM 56.6°F13.7°C 51.5°F10.8°C 83% 3.0 mph NE4.8 kmh NE 10.0 mph16.1 kmh 30.18 in1022.0 mb 0.00 in0.0 mm 0.00 in/hr0.0 mm/hr 0.08 in2.0 mm
11:10 AM 56.8°F13.8°C 51.4°F10.8°C 82% 6.0 mph N9.7 kmh N 9.0 mph14.5 kmh 30.18 in1022.0 mb 0.00 in0.0 mm 0.00 in/hr0.0 mm/hr 0.08 in2.0 mm
11:20 AM 57.1°F13.9°C 51.7°F10.9°C 82% 7.0 mph NE11.3 kmh NE 11.0 mph17.7 kmh 30.18 in1022.0 mb 0.00 in0.0 mm 0.00 in/hr0.0 mm/hr 0.08 in2.0 mm
11:30 AM 57.5°F14.2°C 52.1°F11.2°C 82% Calm Calm 9.0 mph14.5 kmh 30.18 in1022.0 mb 0.00 in0.0 mm 0.00 in/hr0.0 mm/hr 0.08 in2.0 mm
11:40 AM 57.6°F14.2°C 52.2°F11.2°C 82% 1.0 mph NE1.6 kmh NE 7.0 mph11.3 kmh 30.17 in1021.7 mb 0.00 in0.0 mm 0.00 in/hr0.0 mm/hr 0.08 in2.0 mm
11:50 AM 57.4°F14.1°C 51.6°F10.9°C 81% Calm Calm 9.0 mph14.5 kmh 30.18 in1022.0 mb 0.00 in0.0 mm 0.00 in/hr0.0 mm/hr 0.08 in2.0 mm
12:00 PM 57.6°F14.2°C 52.2°F11.2°C 82% 2.0 mph NE3.2 kmh NE 5.0 mph8.0 kmh 30.18 in1022.0 mb 0.00 in0.0 mm 0.00 in/hr0.0 mm/hr 0.08 in2.0 mm
12:10 PM 57.9°F14.4°C 52.1°F11.2°C 81% 4.0 mph NE6.4 kmh NE 7.0 mph11.3 kmh 30.18 in1022.0 mb 0.00 in0.0 mm 0.00 in/hr0.0 mm/hr 0.08 in2.0 mm
12:20 PM 58.0°F14.4°C 52.2°F11.2°C 81% 1.0 mph NNE1.6 kmh NNE 6.0 mph9.7 kmh 30.18 in1022.0 mb 0.00 in0.0 mm 0.00 in/hr0.0 mm/hr 0.08 in2.0 mm
12:30 PM 58.0°F14.4°C 51.9°F11.1°C 80% 5.0 mph N8.0 kmh N 9.0 mph14.5 kmh 30.17 in1021.7 mb 0.00 in0.0 mm 0.00 in/hr0.0 mm/hr 0.08 in2.0 mm
12:40 PM 58.1°F14.5°C 52.0°F11.1°C 80% Calm Calm 5.0 mph8.0 kmh 30.17 in1021.7 mb 0.00 in0.0 mm 0.00 in/hr0.0 mm/hr 0.08 in2.0 mm
12:50 PM 58.6°F14.8°C 52.5°F11.4°C 80% Calm Calm 5.0 mph8.0 kmh 30.17 in1021.7 mb 0.00 in0.0 mm 0.00 in/hr0.0 mm/hr 0.08 in2.0 mm
01:00 PM 59.0°F15.0°C 52.9°F11.6°C 80% 2.0 mph N3.2 kmh N 9.0 mph14.5 kmh 30.17 in1021.7 mb 0.00 in0.0 mm 0.00 in/hr0.0 mm/hr 0.08 in2.0 mm
01:10 PM 59.3°F15.2°C 52.8°F11.6°C 79% 1.0 mph N1.6 kmh N 4.0 mph6.4 kmh 30.17 in1021.7 mb 0.00 in0.0 mm 0.00 in/hr0.0 mm/hr 0.08 in2.0 mm
01:20 PM 59.7°F15.4°C 53.2°F11.8°C 79% 1.0 mph N1.6 kmh N 7.0 mph11.3 kmh 30.17 in1021.7 mb 0.00 in0.0 mm 0.00 in/hr0.0 mm/hr 0.08 in2.0 mm
01:30 PM 59.7°F15.4°C 52.5°F11.4°C 77% 3.0 mph N4.8 kmh N 5.0 mph8.0 kmh 30.17 in1021.7 mb 0.00 in0.0 mm 0.00 in/hr0.0 mm/hr 0.08 in2.0 mm
01:40 PM 59.9°F15.5°C 53.0°F11.7°C 78% Calm Calm 2.0 mph3.2 kmh 30.17 in1021.7 mb 0.00 in0.0 mm 0.00 in/hr0.0 mm/hr 0.08 in2.0 mm
01:50 PM 60.3°F15.7°C 53.8°F12.1°C 79% Calm Calm 4.0 mph6.4 kmh 30.17 in1021.7 mb 0.00 in0.0 mm 0.00 in/hr0.0 mm/hr 0.08 in2.0 mm
02:00 PM 60.0°F15.6°C 52.8°F11.6°C 77% 3.0 mph N4.8 kmh N 3.0 mph4.8 kmh 30.17 in1021.7 mb 0.00 in0.0 mm 0.00 in/hr0.0 mm/hr 0.08 in2.0 mm
02:10 PM 60.4°F15.8°C 53.2°F11.8°C 77% Calm Calm 1.0 mph1.6 kmh 30.16 in1021.3 mb 0.00 in0.0 mm 0.00 in/hr0.0 mm/hr 0.08 in2.0 mm
02:20 PM 60.7°F15.9°C 53.5°F11.9°C 77% Calm Calm 1.0 mph1.6 kmh 30.16 in1021.3 mb 0.00 in0.0 mm 0.00 in/hr0.0 mm/hr 0.08 in2.0 mm
02:30 PM 60.7°F15.9°C 53.5°F11.9°C 77% Calm Calm 3.0 mph4.8 kmh 30.16 in1021.3 mb 0.00 in0.0 mm 0.00 in/hr0.0 mm/hr 0.08 in2.0 mm
02:40 PM 60.9°F16.1°C 53.7°F12.1°C 77% 1.0 mph NE1.6 kmh NE 3.0 mph4.8 kmh 30.16 in1021.3 mb 0.00 in0.0 mm 0.00 in/hr0.0 mm/hr 0.08 in2.0 mm
02:50 PM 60.5°F15.8°C 52.9°F11.6°C 76% Calm Calm 3.0 mph4.8 kmh 30.15 in1021.0 mb 0.00 in0.0 mm 0.00 in/hr0.0 mm/hr 0.08 in2.0 mm
03:00 PM 60.4°F15.8°C 53.2°F11.8°C 77% 4.0 mph N6.4 kmh N 5.0 mph8.0 kmh 30.15 in1021.0 mb 0.00 in0.0 mm 0.00 in/hr0.0 mm/hr 0.08 in2.0 mm
03:10 PM 60.3°F15.7°C 53.1°F11.7°C 77% 3.0 mph NNE4.8 kmh NNE 5.0 mph8.0 kmh 30.15 in1021.0 mb 0.00 in0.0 mm 0.00 in/hr0.0 mm/hr 0.08 in2.0 mm
03:20 PM 60.3°F15.7°C 53.1°F11.7°C 77% Calm Calm 3.0 mph4.8 kmh 30.15 in1021.0 mb 0.00 in0.0 mm 0.00 in/hr0.0 mm/hr 0.08 in2.0 mm
03:30 PM 60.5°F15.8°C 53.3°F11.8°C 77% Calm Calm 5.0 mph8.0 kmh 30.15 in1021.0 mb 0.00 in0.0 mm 0.00 in/hr0.0 mm/hr 0.08 in2.0 mm
03:40 PM 60.8°F16.0°C 52.8°F11.6°C 75% Calm Calm -- 30.14 in1020.7 mb 0.00 in0.0 mm 0.00 in/hr0.0 mm/hr 0.08 in2.0 mm
03:50 PM 61.1°F16.2°C 53.8°F12.1°C 77% Calm Calm 3.0 mph4.8 kmh 30.14 in1020.7 mb 0.00 in0.0 mm 0.00 in/hr0.0 mm/hr 0.08 in2.0 mm
04:00 PM 60.9°F16.1°C 53.7°F12.1°C 77% Calm Calm 2.0 mph3.2 kmh 30.14 in1020.7 mb 0.00 in0.0 mm 0.00 in/hr0.0 mm/hr 0.08 in2.0 mm
04:10 PM 60.7°F15.9°C 53.1°F11.7°C 76% Calm Calm 1.0 mph1.6 kmh 30.14 in1020.7 mb 0.00 in0.0 mm 0.00 in/hr0.0 mm/hr 0.08 in2.0 mm
04:20 PM 60.7°F15.9°C 53.5°F11.9°C 77% Calm Calm 1.0 mph1.6 kmh 30.14 in1020.7 mb 0.00 in0.0 mm 0.00 in/hr0.0 mm/hr 0.08 in2.0 mm
04:30 PM 60.8°F16.0°C 53.6°F12.0°C 77% Calm Calm 3.0 mph4.8 kmh 30.14 in1020.7 mb 0.00 in0.0 mm 0.00 in/hr0.0 mm/hr 0.08 in2.0 mm
04:40 PM 60.9°F16.1°C 53.3°F11.8°C 76% Calm Calm 1.0 mph1.6 kmh 30.14 in1020.7 mb 0.00 in0.0 mm 0.00 in/hr0.0 mm/hr 0.08 in2.0 mm
04:50 PM 61.1°F16.2°C 53.5°F11.9°C 76% Calm Calm 1.0 mph1.6 kmh 30.13 in1020.3 mb 0.00 in0.0 mm 0.00 in/hr0.0 mm/hr 0.08 in2.0 mm
05:00 PM 60.9°F16.1°C 53.7°F12.1°C 77% Calm Calm 1.0 mph1.6 kmh 30.13 in1020.3 mb 0.00 in0.0 mm 0.00 in/hr0.0 mm/hr 0.08 in2.0 mm
05:10 PM 60.8°F16.0°C 53.2°F11.8°C 76% Calm Calm -- 30.13 in1020.3 mb 0.00 in0.0 mm 0.00 in/hr0.0 mm/hr 0.08 in2.0 mm
05:20 PM 60.9°F16.1°C 53.7°F12.1°C 77% Calm Calm 1.0 mph1.6 kmh 30.13 in1020.3 mb 0.00 in0.0 mm 0.00 in/hr0.0 mm/hr 0.08 in2.0 mm
05:30 PM 60.8°F16.0°C 53.6°F12.0°C 77% Calm Calm 4.0 mph6.4 kmh 30.13 in1020.3 mb 0.00 in0.0 mm 0.00 in/hr0.0 mm/hr 0.08 in2.0 mm
05:40 PM 60.5°F15.8°C 53.3°F11.8°C 77% Calm Calm 3.0 mph4.8 kmh 30.13 in1020.3 mb 0.00 in0.0 mm 0.00 in/hr0.0 mm/hr 0.08 in2.0 mm
05:50 PM 60.3°F15.7°C 53.1°F11.7°C 77% Calm Calm 1.0 mph1.6 kmh 30.13 in1020.3 mb 0.00 in0.0 mm 0.00 in/hr0.0 mm/hr 0.08 in2.0 mm
06:00 PM 60.2°F15.7°C 53.3°F11.8°C 78% Calm Calm 2.0 mph3.2 kmh 30.13 in1020.3 mb 0.00 in0.0 mm 0.00 in/hr0.0 mm/hr 0.08 in2.0 mm
06:10 PM 60.3°F15.7°C 53.4°F11.9°C 78% 1.0 mph N1.6 kmh N 2.0 mph3.2 kmh 30.12 in1020.0 mb 0.00 in0.0 mm 0.00 in/hr0.0 mm/hr 0.08 in2.0 mm
06:20 PM 60.4°F15.8°C 53.5°F11.9°C 78% Calm Calm 1.0 mph1.6 kmh 30.12 in1020.0 mb 0.00 in0.0 mm 0.00 in/hr0.0 mm/hr 0.08 in2.0 mm
06:30 PM 60.4°F15.8°C 53.5°F11.9°C 78% Calm Calm -- 30.12 in1020.0 mb 0.00 in0.0 mm 0.00 in/hr0.0 mm/hr 0.08 in2.0 mm
06:40 PM 60.4°F15.8°C 53.2°F11.8°C 77% Calm Calm 1.0 mph1.6 kmh 30.12 in1020.0 mb 0.00 in0.0 mm 0.00 in/hr0.0 mm/hr 0.08 in2.0 mm
06:50 PM 60.2°F15.7°C 52.6°F11.4°C 76% Calm Calm 1.0 mph1.6 kmh 30.12 in1020.0 mb 0.00 in0.0 mm 0.00 in/hr0.0 mm/hr 0.08 in2.0 mm
07:00 PM 60.3°F15.7°C 53.1°F11.7°C 77% Calm Calm -- 30.12 in1020.0 mb 0.00 in0.0 mm 0.00 in/hr0.0 mm/hr 0.08 in2.0 mm
07:10 PM 59.9°F15.5°C 53.0°F11.7°C 78% Calm Calm -- 30.12 in1020.0 mb 0.00 in0.0 mm 0.00 in/hr0.0 mm/hr 0.08 in2.0 mm
07:20 PM 59.6°F15.3°C 52.7°F11.5°C 78% Calm Calm -- 30.12 in1020.0 mb 0.00 in0.0 mm 0.00 in/hr0.0 mm/hr 0.08 in2.0 mm
07:30 PM 59.4°F15.2°C 52.6°F11.4°C 78% Calm Calm 1.0 mph1.6 kmh 30.12 in1020.0 mb 0.00 in0.0 mm 0.00 in/hr0.0 mm/hr 0.08 in2.0 mm
07:40 PM 59.3°F15.2°C 52.5°F11.4°C 78% Calm Calm -- 30.12 in1020.0 mb 0.00 in0.0 mm 0.00 in/hr0.0 mm/hr 0.08 in2.0 mm
07:50 PM 59.1°F15.1°C 52.6°F11.4°C 79% Calm Calm -- 30.11 in1019.6 mb 0.00 in0.0 mm 0.00 in/hr0.0 mm/hr 0.08 in2.0 mm
08:00 PM 58.9°F14.9°C 52.8°F11.6°C 80% 1.0 mph N1.6 kmh N 3.0 mph4.8 kmh 30.11 in1019.6 mb 0.00 in0.0 mm 0.00 in/hr0.0 mm/hr 0.08 in2.0 mm
08:10 PM 58.8°F14.9°C 52.0°F11.1°C 78% Calm Calm -- 30.11 in1019.6 mb 0.00 in0.0 mm 0.00 in/hr0.0 mm/hr 0.08 in2.0 mm
08:20 PM 58.7°F14.8°C 51.9°F11.1°C 78% Calm Calm -- 30.12 in1020.0 mb 0.00 in0.0 mm 0.00 in/hr0.0 mm/hr 0.08 in2.0 mm
08:30 PM 58.6°F14.8°C 52.1°F11.2°C 79% Calm Calm -- 30.11 in1019.6 mb 0.00 in0.0 mm 0.00 in/hr0.0 mm/hr 0.08 in2.0 mm
08:40 PM 58.5°F14.7°C 52.4°F11.3°C 80% Calm Calm 1.0 mph1.6 kmh 30.12 in1020.0 mb 0.00 in0.0 mm 0.00 in/hr0.0 mm/hr 0.08 in2.0 mm
08:50 PM 58.3°F14.6°C 51.8°F11.0°C 79% Calm Calm 1.0 mph1.6 kmh 30.12 in1020.0 mb 0.00 in0.0 mm 0.00 in/hr0.0 mm/hr 0.08 in2.0 mm
09:00 PM 58.3°F14.6°C 52.2°F11.2°C 80% Calm Calm -- 30.12 in1020.0 mb 0.00 in0.0 mm 0.00 in/hr0.0 mm/hr 0.08 in2.0 mm
09:10 PM 58.0°F14.4°C 51.9°F11.1°C 80% Calm Calm -- 30.12 in1020.0 mb 0.00 in0.0 mm 0.00 in/hr0.0 mm/hr 0.08 in2.0 mm
09:20 PM 58.0°F14.4°C 51.9°F11.1°C 80% Calm Calm -- 30.12 in1020.0 mb 0.00 in0.0 mm 0.00 in/hr0.0 mm/hr 0.08 in2.0 mm
09:30 PM 57.9°F14.4°C 51.8°F11.0°C 80% Calm Calm -- 30.12 in1020.0 mb 0.00 in0.0 mm 0.00 in/hr0.0 mm/hr 0.08 in2.0 mm
09:40 PM 57.9°F14.4°C 51.4°F10.8°C 79% Calm Calm -- 30.12 in1020.0 mb 0.00 in0.0 mm 0.00 in/hr0.0 mm/hr 0.08 in2.0 mm
09:50 PM 57.8°F14.3°C 51.3°F10.7°C 79% Calm Calm 1.0 mph1.6 kmh 30.12 in1020.0 mb 0.00 in0.0 mm 0.00 in/hr0.0 mm/hr 0.08 in2.0 mm
10:00 PM 57.8°F14.3°C 51.7°F10.9°C 80% Calm Calm -- 30.12 in1020.0 mb 0.00 in0.0 mm 0.00 in/hr0.0 mm/hr 0.08 in2.0 mm
10:10 PM 57.9°F14.4°C 51.8°F11.0°C 80% Calm Calm -- 30.12 in1020.0 mb 0.00 in0.0 mm 0.00 in/hr0.0 mm/hr 0.08 in2.0 mm
10:20 PM 57.9°F14.4°C 52.1°F11.2°C 81% Calm Calm -- 30.12 in1020.0 mb 0.00 in0.0 mm 0.00 in/hr0.0 mm/hr 0.08 in2.0 mm
10:30 PM 57.9°F14.4°C 52.1°F11.2°C 81% Calm Calm -- 30.12 in1020.0 mb 0.00 in0.0 mm 0.00 in/hr0.0 mm/hr 0.08 in2.0 mm
10:40 PM 57.9°F14.4°C 52.5°F11.4°C 82% Calm Calm -- 30.12 in1020.0 mb 0.00 in0.0 mm 0.00 in/hr0.0 mm/hr 0.08 in2.0 mm
10:50 PM 57.8°F14.3°C 52.4°F11.3°C 82% Calm Calm -- 30.11 in1019.6 mb 0.00 in0.0 mm 0.00 in/hr0.0 mm/hr 0.08 in2.0 mm
11:00 PM 57.5°F14.2°C 52.1°F11.2°C 82% Calm Calm 1.0 mph1.6 kmh 30.11 in1019.6 mb 0.00 in0.0 mm 0.00 in/hr0.0 mm/hr 0.08 in2.0 mm
11:10 PM 57.4°F14.1°C 52.0°F11.1°C 82% Calm Calm -- 30.11 in1019.6 mb 0.00 in0.0 mm 0.00 in/hr0.0 mm/hr 0.08 in2.0 mm
11:20 PM 57.2°F14.0°C 51.8°F11.0°C 82% Calm Calm -- 30.12 in1020.0 mb 0.00 in0.0 mm 0.00 in/hr0.0 mm/hr 0.08 in2.0 mm
11:30 PM 57.1°F13.9°C 51.7°F10.9°C 82% Calm Calm -- 30.12 in1020.0 mb 0.00 in0.0 mm 0.00 in/hr0.0 mm/hr 0.08 in2.0 mm
11:40 PM 57.0°F13.9°C 51.6°F10.9°C 82% Calm Calm -- 30.12 in1020.0 mb 0.00 in0.0 mm 0.00 in/hr0.0 mm/hr 0.08 in2.0 mm
11:50 PM 57.0°F13.9°C 51.6°F10.9°C 82% Calm Calm -- 30.12 in1020.0 mb 0.00 in0.0 mm 0.00 in/hr0.0 mm/hr 0.08 in2.0 mm